createdAt,value
2022-11-21T00:01:19.607Z,94832.34
2022-11-21T00:03:47.297Z,94825.50
2022-11-21T00:06:15.788Z,94820.38
2022-11-21T00:08:43.898Z,94807.72
2022-11-21T00:11:12.608Z,94814.03
2022-11-21T00:13:40.408Z,94807.63
2022-11-21T00:16:10.070Z,94807.22
2022-11-21T00:18:39.259Z,94795.03
2022-11-21T00:21:08.874Z,94804.69
2022-11-21T00:23:36.755Z,94809.09
2022-11-21T00:26:06.491Z,94817.94
2022-11-21T00:28:34.202Z,94814.03
2022-11-21T00:31:02.304Z,94821.31
2022-11-21T00:33:29.987Z,94820.25
2022-11-21T00:36:01.588Z,94824.94
2022-11-21T00:38:29.248Z,94822.19
2022-11-21T00:40:57.368Z,94816.56
2022-11-21T00:43:25.027Z,94819.22
2022-11-21T00:45:53.318Z,94819.91
2022-11-21T00:48:20.977Z,94825.16
2022-11-21T00:50:50.197Z,94818.00
2022-11-21T00:53:19.237Z,94829.00
2022-11-21T00:55:47.505Z,94833.81
2022-11-21T00:58:15.188Z,94829.50
2022-11-21T01:00:43.070Z,94832.19
2022-11-21T01:03:11.138Z,94826.06
2022-11-21T01:05:38.801Z,94829.69
2022-11-21T01:08:07.484Z,94829.56
2022-11-21T01:10:37.062Z,94823.88
2022-11-21T01:13:05.545Z,94832.91
2022-11-21T01:15:34.691Z,94835.31
2022-11-21T01:18:02.972Z,94832.53
2022-11-21T01:20:30.616Z,94824.66
2022-11-21T01:22:58.936Z,94820.47
2022-11-21T01:25:26.608Z,94829.28
2022-11-21T01:27:55.897Z,94815.63
2022-11-21T01:30:23.596Z,94816.72
2022-11-21T01:32:51.648Z,94824.59
2022-11-21T01:35:20.146Z,94817.03
2022-11-21T01:37:48.853Z,94810.59
2022-11-21T01:40:17.123Z,94806.13
2022-11-21T01:42:53.034Z,94801.16
2022-11-21T01:45:54.132Z,94787.06
2022-11-21T01:48:26.637Z,94787.13
2022-11-21T01:50:56.076Z,94780.22
2022-11-21T01:53:24.478Z,94773.56
2022-11-21T01:55:53.039Z,94764.72
2022-11-21T01:58:22.113Z,94772.28
2022-11-21T02:00:50.209Z,94756.88
2022-11-21T02:03:23.388Z,94761.94
2022-11-21T02:05:52.771Z,94761.72
2022-11-21T02:08:22.931Z,94752.28
2022-11-21T02:10:58.971Z,94767.44
2022-11-21T02:13:27.152Z,94760.66
2022-11-21T02:15:55.201Z,94760.78
2022-11-21T02:18:24.624Z,94765.16
2022-11-21T02:21:03.657Z,94773.72
2022-11-21T02:23:40.485Z,94749.81
2022-11-21T02:26:09.897Z,94760.81
2022-11-21T02:28:38.457Z,94764.84
2022-11-21T02:31:06.132Z,94756.28
2022-11-21T02:33:33.834Z,94755.28
2022-11-21T02:36:02.517Z,94735.34
2022-11-21T02:38:33.984Z,94750.94
2022-11-21T02:41:08.632Z,94738.06
2022-11-21T02:43:42.973Z,94729.00
2022-11-21T02:46:10.678Z,94727.38
2022-11-21T02:48:39.492Z,94723.41
2022-11-21T02:51:07.173Z,94719.47
2022-11-21T02:53:35.155Z,94714.94
2022-11-21T02:56:02.883Z,94714.56
2022-11-21T02:58:31.308Z,94717.16
2022-11-21T03:01:00.399Z,94709.25
2022-11-21T03:03:28.292Z,94710.88
2022-11-21T03:05:56.412Z,94710.25
2022-11-21T03:08:24.781Z,94702.41
2022-11-21T03:10:52.590Z,94712.34
2022-11-21T03:13:20.893Z,94695.31
2022-11-21T03:15:48.605Z,94695.44
2022-11-21T03:18:18.184Z,94692.88
2022-11-21T03:20:45.836Z,94700.13
2022-11-21T03:23:13.847Z,94694.50
2022-11-21T03:25:41.485Z,94695.53
2022-11-21T03:28:09.148Z,94684.75
2022-11-21T03:30:36.883Z,94695.44
2022-11-21T03:33:05.035Z,94699.94
2022-11-21T03:35:34.154Z,94696.38
2022-11-21T03:38:02.504Z,94679.22
2022-11-21T03:40:30.161Z,94675.78
2022-11-21T03:42:58.174Z,94672.19
2022-11-21T03:45:25.882Z,94669.97
2022-11-21T03:47:53.522Z,94674.09
2022-11-21T03:50:21.889Z,94672.53
2022-11-21T03:52:50.938Z,94679.50
2022-11-21T03:55:18.830Z,94671.44
2022-11-21T03:57:46.512Z,94663.44
2022-11-21T04:00:16.099Z,94656.03
2022-11-21T04:02:44.809Z,94665.16
2022-11-21T04:05:12.778Z,94649.16
2022-11-21T04:07:40.517Z,94652.22
2022-11-21T04:10:11.199Z,94644.19
2022-11-21T04:12:38.890Z,94642.13
2022-11-21T04:15:13.163Z,94632.66
2022-11-21T04:17:41.597Z,94641.78
2022-11-21T04:20:10.780Z,94638.41
2022-11-21T04:22:38.433Z,94633.25
2022-11-21T04:25:07.556Z,94632.66
2022-11-21T04:27:36.638Z,94635.34
2022-11-21T04:30:05.151Z,94639.31
2022-11-21T04:32:32.810Z,94634.84
2022-11-21T04:35:00.941Z,94646.84
2022-11-21T04:37:28.598Z,94629.44
2022-11-21T04:39:56.745Z,94633.66
2022-11-21T04:42:24.904Z,94624.69
2022-11-21T04:44:54.285Z,94633.22
2022-11-21T04:47:22.085Z,94623.78
2022-11-21T04:49:50.178Z,94632.56
2022-11-21T04:52:17.844Z,94638.47
2022-11-21T04:54:45.972Z,94648.50
2022-11-21T04:57:13.633Z,94630.47
2022-11-21T04:59:41.622Z,94637.91
2022-11-21T05:02:11.237Z,94651.91
2022-11-21T05:04:39.896Z,94650.94
2022-11-21T05:07:07.664Z,94639.50
2022-11-21T05:09:35.692Z,94652.19
2022-11-21T05:12:21.081Z,94634.88
2022-11-21T05:14:49.140Z,94647.19
2022-11-21T05:17:18.170Z,94654.53
2022-11-21T05:19:46.276Z,94643.97
2022-11-21T05:22:14.423Z,94652.59
2022-11-21T05:24:42.259Z,94648.19
2022-11-21T05:27:09.915Z,94656.19
2022-11-21T05:29:37.869Z,94645.19
2022-11-21T05:32:05.994Z,94641.72
2022-11-21T05:34:35.402Z,94645.34
2022-11-21T05:37:03.080Z,94639.66
2022-11-21T05:39:31.123Z,94642.03
2022-11-21T05:42:02.927Z,94640.88
2022-11-21T05:44:30.559Z,94647.13
2022-11-21T05:46:58.767Z,94645.28
2022-11-21T05:49:26.461Z,94648.25
2022-11-21T05:51:56.303Z,94649.63
2022-11-21T05:54:23.968Z,94638.69
2022-11-21T05:56:51.949Z,94636.16
2022-11-21T05:59:19.675Z,94641.13
2022-11-21T06:02:05.082Z,94633.44
2022-11-21T06:04:32.793Z,94643.53
2022-11-21T06:07:01.850Z,94642.78
2022-11-21T06:09:29.568Z,94637.22
2022-11-21T06:11:57.941Z,94646.75
2022-11-21T06:14:25.824Z,94643.75
2022-11-21T06:16:53.900Z,94630.63
2022-11-21T06:19:21.576Z,94630.66
2022-11-21T06:21:49.594Z,94644.44
2022-11-21T06:24:22.144Z,94637.47
2022-11-21T06:26:50.777Z,94651.59
2022-11-21T06:29:18.419Z,94650.78
2022-11-21T06:31:46.711Z,94647.22
2022-11-21T06:34:14.407Z,94649.50
2022-11-21T06:36:44.629Z,94647.72
2022-11-21T06:39:12.290Z,94655.94
2022-11-21T06:41:41.318Z,94651.84
2022-11-21T06:44:09.167Z,94648.72
2022-11-21T06:46:36.829Z,94666.50
2022-11-21T06:49:04.738Z,94658.41
2022-11-21T06:51:32.736Z,94674.06
2022-11-21T06:54:00.384Z,94669.69
2022-11-21T06:56:29.768Z,94689.19
2022-11-21T06:58:59.769Z,94676.84
2022-11-21T07:01:28.960Z,94687.44
2022-11-21T07:03:56.877Z,94690.84
2022-11-21T07:06:25.252Z,94695.25
2022-11-21T07:09:17.629Z,94697.72
2022-11-21T07:11:42.381Z,94689.25
2022-11-21T07:14:10.518Z,94696.41
2022-11-21T07:16:38.719Z,94700.63
2022-11-21T07:19:06.526Z,94702.13
2022-11-21T07:21:34.217Z,94698.94
2022-11-21T07:24:01.889Z,94700.53
2022-11-21T07:26:29.703Z,94700.78
2022-11-21T07:28:57.350Z,94696.63
2022-11-21T07:31:26.985Z,94703.00
2022-11-21T07:33:54.652Z,94699.09
2022-11-21T07:36:22.623Z,94708.31
2022-11-21T07:38:50.334Z,94701.66
2022-11-21T07:41:18.681Z,94718.19
2022-11-21T07:43:46.345Z,94716.66
2022-11-21T07:46:14.423Z,94725.94
2022-11-21T07:48:43.609Z,94733.31
2022-11-21T07:51:11.939Z,94722.72
2022-11-21T07:53:39.598Z,94723.03
2022-11-21T07:56:09.481Z,94728.94
2022-11-21T07:58:38.263Z,94722.41
2022-11-21T08:01:07.691Z,94724.59
2022-11-21T08:03:36.202Z,94734.44
2022-11-21T08:06:06.180Z,94722.25
2022-11-21T08:08:33.820Z,94728.81
2022-11-21T08:11:05.298Z,94716.47
2022-11-21T08:13:33.435Z,94726.34
2022-11-21T08:16:03.630Z,94732.00
2022-11-21T08:18:31.747Z,94729.59
2022-11-21T08:21:01.952Z,94735.16
2022-11-21T08:23:31.699Z,94721.56
2022-11-21T08:25:59.915Z,94716.88
2022-11-21T08:28:28.165Z,94719.31
2022-11-21T08:30:55.975Z,94711.53
2022-11-21T08:33:23.920Z,94711.13
2022-11-21T08:35:51.552Z,94717.50
2022-11-21T08:38:19.514Z,94710.88
2022-11-21T08:41:11.136Z,94714.91
2022-11-21T08:43:42.709Z,94716.41
2022-11-21T08:46:10.550Z,94704.88
2022-11-21T08:48:38.488Z,94709.03
2022-11-21T08:51:06.101Z,94705.44
2022-11-21T08:53:34.413Z,94696.88
2022-11-21T08:56:04.579Z,94703.31
2022-11-21T08:58:32.764Z,94706.44
2022-11-21T09:01:00.574Z,94695.69
2022-11-21T09:03:31.390Z,94698.03
2022-11-21T09:05:59.814Z,94706.00
2022-11-21T09:08:28.589Z,94704.44
2022-11-21T09:10:56.213Z,94695.06
2022-11-21T09:13:25.719Z,94694.44
2022-11-21T09:16:11.738Z,94680.28
2022-11-21T09:18:40.667Z,94678.25
2022-11-21T09:21:08.770Z,94675.91
2022-11-21T09:23:36.735Z,94667.97
2022-11-21T09:26:04.408Z,94663.88
2022-11-21T09:28:33.761Z,94652.59
2022-11-21T09:31:03.354Z,94653.06
2022-11-21T09:33:31.862Z,94653.94
2022-11-21T09:35:59.986Z,94654.88
2022-11-21T09:38:27.876Z,94657.28
2022-11-21T09:41:27.787Z,94660.09
2022-11-21T09:44:07.812Z,94675.97
2022-11-21T09:46:42.566Z,94674.72
2022-11-21T09:49:15.132Z,94671.00
2022-11-21T09:51:46.122Z,94674.78
2022-11-21T09:54:22.645Z,94665.50
2022-11-21T09:56:52.517Z,94664.25
2022-11-21T09:59:34.361Z,94661.13
2022-11-21T10:02:02.826Z,94649.66
2022-11-21T10:04:32.641Z,94649.50
2022-11-21T10:07:05.613Z,94641.41
2022-11-21T10:09:51.284Z,94642.94
2022-11-21T10:12:39.012Z,94647.63
2022-11-21T10:15:28.015Z,94624.75
2022-11-21T10:18:18.264Z,94633.91
2022-11-21T10:20:58.969Z,94630.84
2022-11-21T10:23:41.238Z,94635.50
2022-11-21T10:26:24.021Z,94622.53
2022-11-21T10:28:55.822Z,94637.59
2022-11-21T10:31:25.773Z,94632.91
2022-11-21T10:33:55.830Z,94624.56
2022-11-21T10:36:28.361Z,94624.13
2022-11-21T10:39:03.854Z,94618.25
2022-11-21T10:41:41.525Z,94602.75
2022-11-21T10:44:37.892Z,94598.94
2022-11-21T10:47:15.943Z,94581.16
2022-11-21T10:49:46.749Z,94593.41
2022-11-21T10:52:16.980Z,94598.50
2022-11-21T10:55:05.950Z,94586.00
2022-11-21T10:57:40.580Z,94579.59
2022-11-21T11:00:22.336Z,94576.16
2022-11-21T11:03:04.948Z,94581.75
2022-11-21T11:05:34.802Z,94574.91
2022-11-21T11:08:06.086Z,94581.78
2022-11-21T11:10:34.963Z,94570.69
2022-11-21T11:16:17.075Z,94563.97
2022-11-21T11:18:52.809Z,94563.66
2022-11-21T11:21:23.522Z,94544.75
2022-11-21T11:23:52.937Z,94540.69
2022-11-21T11:26:24.181Z,94542.13
2022-11-21T11:28:52.220Z,94529.38
2022-11-21T11:31:20.184Z,94521.50
2022-11-21T11:33:55.706Z,94524.97
2022-11-21T11:36:35.552Z,94522.78
2022-11-21T11:39:12.009Z,94522.50
2022-11-21T11:42:42.736Z,94520.81
2022-11-21T11:45:34.996Z,94509.34
2022-11-21T11:48:10.318Z,94521.06
2022-11-21T11:50:44.359Z,94515.66
2022-11-21T11:53:16.591Z,94512.81
2022-11-21T11:55:52.228Z,94502.28
2022-11-21T11:58:26.573Z,94497.41
2022-11-21T12:01:01.611Z,94495.81
2022-11-21T12:03:40.561Z,94486.47
2022-11-21T12:06:17.229Z,94484.06
2022-11-21T12:08:53.463Z,94475.56
2022-11-21T12:11:48.745Z,94473.91
2022-11-21T12:14:47.124Z,94467.84
2022-11-21T12:17:17.541Z,94463.00
2022-11-21T12:19:45.510Z,94447.63
2022-11-21T12:22:14.515Z,94450.25
2022-11-21T12:24:43.419Z,94455.72
2022-11-21T12:27:23.309Z,94444.78
2022-11-21T12:30:10.706Z,94439.50
2022-11-21T12:32:56.958Z,94440.66
2022-11-21T12:36:09.001Z,94437.16
2022-11-21T12:39:21.909Z,94430.50
2022-11-21T12:42:15.649Z,94419.72
2022-11-21T12:45:00.592Z,94409.31
2022-11-21T12:47:59.916Z,94404.16
2022-11-21T12:50:55.001Z,94413.34
2022-11-21T12:53:48.260Z,94399.09
2022-11-21T12:56:29.533Z,94388.63
2022-11-21T12:59:01.365Z,94386.16
2022-11-21T13:01:37.232Z,94382.16
2022-11-21T13:04:06.826Z,94373.22
2022-11-21T13:06:39.761Z,94370.06
2022-11-21T13:09:13.763Z,94369.78
2022-11-21T13:12:00.521Z,94361.00
2022-11-21T13:14:42.638Z,94362.41
2022-11-21T13:17:37.154Z,94361.91
2022-11-21T13:20:15.378Z,94354.56
2022-11-21T13:22:58.238Z,94359.59
2022-11-21T13:25:47.336Z,94355.38
2022-11-21T13:28:36.322Z,94351.25
2022-11-21T13:31:30.726Z,94345.28
2022-11-21T13:33:59.366Z,94344.09
2022-11-21T13:36:43.681Z,94336.50
2022-11-21T13:39:27.741Z,94328.19
2022-11-21T13:42:30.604Z,94326.84
2022-11-21T13:44:58.737Z,94317.31
2022-11-21T13:48:05.849Z,94305.72
2022-11-21T13:50:44.406Z,94303.34
2022-11-21T13:53:31.856Z,94294.19
2022-11-21T13:56:05.981Z,94284.88
2022-11-21T13:58:48.493Z,94285.09
2022-11-21T14:01:36.492Z,94278.31
2022-11-21T14:04:48.746Z,94279.72
2022-11-21T14:07:24.608Z,94285.81
2022-11-21T14:09:53.298Z,94281.84
2022-11-21T14:12:30.011Z,94284.97
2022-11-21T14:15:20.731Z,94276.31
2022-11-21T14:17:51.389Z,94278.75
2022-11-21T14:20:22.577Z,94269.59
2022-11-21T14:23:01.365Z,94264.69
2022-11-21T14:25:36.629Z,94251.50
2022-11-21T14:28:08.496Z,94246.09
2022-11-21T14:30:38.356Z,94242.09
2022-11-21T14:33:25.039Z,94237.88
2022-11-21T14:35:55.185Z,94243.28
2022-11-21T14:38:25.858Z,94242.94
2022-11-21T14:41:25.762Z,94232.38
2022-11-21T14:44:03.445Z,94223.94
2022-11-21T14:46:33.231Z,94216.34
2022-11-21T14:49:19.039Z,94228.47
2022-11-21T14:51:49.143Z,94221.22
2022-11-21T14:54:21.517Z,94225.13
2022-11-21T14:56:55.581Z,94218.72
2022-11-21T14:59:26.161Z,94213.91
2022-11-21T15:02:00.217Z,94204.28
2022-11-21T15:04:31.421Z,94192.59
2022-11-21T15:06:59.692Z,94187.72
2022-11-21T15:10:25.954Z,94184.94
2022-11-21T15:12:24.426Z,94193.47
2022-11-21T15:14:57.166Z,94185.84
2022-11-21T15:17:26.566Z,94175.34
2022-11-21T15:20:18.754Z,94180.44
2022-11-21T15:22:48.559Z,94169.94
2022-11-21T15:25:21.260Z,94163.72
2022-11-21T15:27:50.197Z,94163.72
2022-11-21T15:30:26.766Z,94164.19
2022-11-21T15:33:16.416Z,94156.31
2022-11-21T15:35:53.560Z,94153.28
2022-11-21T15:38:28.434Z,94141.56
2022-11-21T15:41:05.971Z,94141.38
2022-11-21T15:43:45.235Z,94137.97
2022-11-21T15:46:16.360Z,94128.25
2022-11-21T15:48:47.087Z,94122.19
2022-11-21T15:51:15.112Z,94114.94
2022-11-21T15:53:43.305Z,94113.13
2022-11-21T15:56:21.263Z,94106.47
2022-11-21T15:58:50.654Z,94099.19
2022-11-21T16:01:20.555Z,94106.47
2022-11-21T16:03:50.983Z,94109.28
2022-11-21T16:06:19.933Z,94110.09
2022-11-21T16:08:48.020Z,94107.66
2022-11-21T16:11:21.849Z,94100.59
2022-11-21T16:13:51.512Z,94086.66
2022-11-21T16:16:19.511Z,94081.00
2022-11-21T16:18:47.898Z,94083.03
2022-11-21T16:21:15.910Z,94085.88
2022-11-21T16:23:44.591Z,94084.63
2022-11-21T16:26:12.776Z,94077.78
2022-11-21T16:28:42.247Z,94084.03
2022-11-21T16:31:19.639Z,94082.00
2022-11-21T16:33:48.221Z,94073.72
2022-11-21T16:36:21.072Z,94072.09
2022-11-21T16:38:49.286Z,94070.28
2022-11-21T16:41:19.211Z,94055.34
2022-11-21T16:43:50.372Z,94065.22
2022-11-21T16:46:18.891Z,94047.44
2022-11-21T16:48:46.697Z,94044.59
2022-11-21T16:51:15.972Z,94028.06
2022-11-21T16:53:44.442Z,94025.63
2022-11-21T16:56:13.180Z,94020.78
2022-11-21T16:58:42.414Z,94020.41
2022-11-21T17:01:13.749Z,94020.38
2022-11-21T17:03:42.964Z,94007.03
2022-11-21T17:06:11.979Z,94002.78
2022-11-21T17:08:40.341Z,94004.97
2022-11-21T17:11:16.488Z,93998.91
2022-11-21T17:13:45.104Z,94002.28
2022-11-21T17:16:15.771Z,93993.19
2022-11-21T17:18:43.758Z,93988.75
2022-11-21T17:21:13.161Z,93985.91
2022-11-21T17:23:43.392Z,93982.28
2022-11-21T17:26:14.573Z,93970.59
2022-11-21T17:28:45.843Z,93967.38
2022-11-21T17:31:17.000Z,93974.22
2022-11-21T17:33:50.050Z,93963.75
2022-11-21T17:36:20.147Z,93955.28
2022-11-21T17:38:48.070Z,93959.28
2022-11-21T17:41:18.094Z,93955.66
2022-11-21T17:43:47.173Z,93951.69
2022-11-21T17:46:18.727Z,93952.69
2022-11-21T17:48:54.361Z,93945.19
2022-11-21T17:51:25.729Z,93942.78
2022-11-21T17:53:54.359Z,93939.97
2022-11-21T17:56:24.833Z,93926.69
2022-11-21T17:58:53.202Z,93931.75
2022-11-21T18:01:22.904Z,93912.78
2022-11-21T18:03:56.645Z,93910.19
2022-11-21T18:06:25.921Z,93913.19
2022-11-21T18:08:53.895Z,93907.16
2022-11-21T18:11:23.298Z,93909.78
2022-11-21T18:13:51.342Z,93905.56
2022-11-21T18:16:21.206Z,93913.59
2022-11-21T18:18:51.442Z,93906.75
2022-11-21T18:21:21.663Z,93906.94
2022-11-21T18:23:49.592Z,93893.44
2022-11-21T18:26:21.123Z,93901.44
2022-11-21T18:29:06.895Z,93897.22
2022-11-21T18:31:38.019Z,93882.94
2022-11-21T18:34:07.577Z,93880.84
2022-11-21T18:36:36.358Z,93877.41
2022-11-21T18:39:10.501Z,93871.38
2022-11-21T18:41:42.043Z,93855.66
2022-11-21T18:44:10.120Z,93842.41
2022-11-21T18:46:39.303Z,93828.72
2022-11-21T18:49:08.734Z,93824.75
2022-11-21T18:51:38.115Z,93823.72
2022-11-21T18:54:09.599Z,93822.69
2022-11-21T18:56:38.210Z,93822.06
2022-11-21T18:59:06.864Z,93817.22
2022-11-21T19:01:36.684Z,93821.44
2022-11-21T19:04:04.978Z,93813.59
2022-11-21T19:06:34.043Z,93806.53
2022-11-21T19:09:01.659Z,93798.09
2022-11-21T19:11:30.996Z,93786.03
2022-11-21T19:14:00.317Z,93790.44
2022-11-21T19:16:31.458Z,93796.06
2022-11-21T19:19:32.568Z,93800.25
2022-11-21T19:21:48.434Z,93816.09
2022-11-21T19:24:16.414Z,93822.41
2022-11-21T19:26:44.638Z,93817.94
2022-11-21T19:29:12.805Z,93816.34
2022-11-21T19:31:45.333Z,93805.50
2022-11-21T19:34:13.920Z,93783.44
2022-11-21T19:36:42.938Z,93772.38
2022-11-21T19:39:12.899Z,93764.56
2022-11-21T19:41:40.652Z,93766.56
2022-11-21T19:44:08.305Z,93784.84
2022-11-21T19:46:37.516Z,93782.22
2022-11-21T19:49:06.141Z,93771.78
2022-11-21T19:51:36.659Z,93770.19
2022-11-21T19:54:05.179Z,93770.97
2022-11-21T19:56:35.184Z,93765.16
2022-11-21T19:59:02.878Z,93759.34
2022-11-21T20:01:32.842Z,93756.13
2022-11-21T20:04:02.661Z,93750.09
2022-11-21T20:06:33.515Z,93738.03
2022-11-21T20:09:03.268Z,93738.63
2022-11-21T20:11:33.222Z,93738.03
2022-11-21T20:14:02.904Z,93739.88
2022-11-21T20:16:32.859Z,93730.03
2022-11-21T20:19:03.052Z,93732.03
2022-11-21T20:21:31.221Z,93732.03
2022-11-21T20:23:59.425Z,93731.03
2022-11-21T20:26:27.508Z,93727.03
2022-11-21T20:28:55.870Z,93723.22
2022-11-21T20:31:27.111Z,93723.16
2022-11-21T20:33:58.158Z,93731.16
2022-11-21T20:36:27.147Z,93719.31
2022-11-21T20:38:56.771Z,93716.50
2022-11-21T20:41:26.393Z,93719.88
2022-11-21T20:46:44.752Z,93718.50
2022-11-21T20:49:12.489Z,93715.50
2022-11-21T20:54:28.244Z,93721.31
2022-11-21T20:56:56.236Z,93717.34
2022-11-21T20:59:23.910Z,93714.31
2022-11-21T21:01:53.376Z,93710.72
2022-11-21T21:04:21.165Z,93710.75
2022-11-21T21:06:48.819Z,93717.97
2022-11-21T21:09:16.521Z,93708.78
2022-11-21T21:11:52.140Z,93714.59
2022-11-21T21:14:21.020Z,93712.38
2022-11-21T21:16:49.177Z,93703.53
2022-11-21T21:19:19.135Z,93699.94
2022-11-21T21:21:46.824Z,93703.72
2022-11-21T21:24:15.000Z,93705.88
2022-11-21T21:26:45.443Z,93709.66
2022-11-21T21:29:16.099Z,93709.09
2022-11-21T21:31:50.560Z,93703.03
2022-11-21T21:34:21.195Z,93699.41
2022-11-21T21:36:49.251Z,93699.84
2022-11-21T21:39:17.298Z,93701.47
2022-11-21T21:41:46.774Z,93708.25
2022-11-21T21:44:16.417Z,93727.75
2022-11-21T21:46:44.639Z,93753.97
2022-11-21T21:49:13.028Z,93773.47
2022-11-21T21:51:42.076Z,93747.13
2022-11-21T21:54:17.370Z,93744.66
2022-11-21T21:56:46.634Z,93762.75
2022-11-21T21:59:15.567Z,93753.50
2022-11-21T22:01:43.801Z,93766.56
2022-11-21T22:04:13.241Z,93759.38
2022-11-21T22:06:42.356Z,93759.63
2022-11-21T22:09:10.791Z,93738.34
2022-11-21T22:11:39.336Z,93710.81
2022-11-21T22:14:11.446Z,93715.09
2022-11-21T22:16:40.767Z,93702.47
2022-11-21T22:19:09.097Z,93700.69
2022-11-21T22:21:38.456Z,93716.94
2022-11-21T22:24:29.529Z,93719.94
2022-11-21T22:26:57.823Z,93716.53
2022-11-21T22:29:25.501Z,93722.56
2022-11-21T22:31:53.236Z,93718.78
2022-11-21T22:34:21.564Z,93722.38
2022-11-21T22:36:49.203Z,93716.59
2022-11-21T22:39:18.742Z,93710.75
2022-11-21T22:41:46.418Z,93708.16
2022-11-21T22:44:14.800Z,93708.19
2022-11-21T22:46:42.518Z,93704.16
2022-11-21T22:49:10.702Z,93720.44
2022-11-21T22:51:38.360Z,93724.44
2022-11-21T22:54:06.635Z,93717.13
2022-11-21T22:56:36.292Z,93729.44
2022-11-21T22:59:04.642Z,93726.78
2022-11-21T23:01:34.053Z,93724.56
2022-11-21T23:04:02.432Z,93727.59
2022-11-21T23:06:30.088Z,93722.44
2022-11-21T23:08:58.886Z,93726.47
2022-11-21T23:11:28.530Z,93720.03
2022-11-21T23:13:57.635Z,93717.25
2022-11-21T23:16:25.791Z,93717.66
2022-11-21T23:18:54.533Z,93719.28
2022-11-21T23:21:22.601Z,93711.25
2022-11-21T23:23:50.920Z,93706.00
2022-11-21T23:26:18.596Z,93716.47
2022-11-21T23:28:46.867Z,93705.59
2022-11-21T23:31:16.261Z,93697.00
2022-11-21T23:33:44.356Z,93692.38
2022-11-21T23:36:12.055Z,93707.25
2022-11-21T23:38:40.423Z,93700.81
2022-11-21T23:41:08.106Z,93714.88
2022-11-21T23:43:36.108Z,93729.38
2022-11-21T23:46:03.839Z,93723.38
2022-11-21T23:48:32.809Z,93730.22
2022-11-21T23:51:00.832Z,93722.97
2022-11-21T23:53:28.448Z,93723.59
2022-11-21T23:55:57.057Z,93719.16
2022-11-21T23:58:24.694Z,93730.44
